Time;durP1;ratioP1;P1;durP2;ratioP2;P2;SDS_P1;SDS_P2;PMS_P1;PMS_P2;Temp;Humidity;BMP_temperature;BMP_pressure;BME280_temperature;BME280_humidity;BME280_pressure;Samples;Min_cycle;Max_cycle;Signal;HPM_P1;HPM_P2
2022/07/14 00:00:14;;;;;;;;;5.00;3.75;;;28.97;97885.52;;;;119003;1189;24846;-64
2022/07/14 00:03:01;;;;;;;;;6.00;4.00;;;29.05;97889.76;;;;118940;1189;26742;-65
2022/07/14 00:05:31;;;;;;;;;4.50;4.50;;;29.04;97892.41;;;;118974;1189;25756;-65
2022/07/14 00:07:59;;;;;;;;;8.00;6.00;;;29.02;97890.68;;;;119007;1189;26509;-65
2022/07/14 00:10:26;;;;;;;;;4.25;3.75;;;28.98;97884.02;;;;118991;1190;26375;-65
2022/07/14 00:12:54;;;;;;;;;2.75;2.75;;;28.97;97880.33;;;;118965;1188;24855;-65
2022/07/14 00:15:22;;;;;;;;;4.00;4.00;;;28.96;97882.83;;;;118995;1189;26151;-65
2022/07/14 00:17:50;;;;;;;;;6.50;4.25;;;28.94;97884.72;;;;119030;1189;25300;-65
2022/07/14 00:20:18;;;;;;;;;3.00;3.00;;;28.93;97887.39;;;;119058;1188;26047;-64
2022/07/14 00:22:46;;;;;;;;;3.00;3.00;;;28.92;97890.80;;;;119078;1187;25745;-65
2022/07/14 00:25:14;;;;;;;;;3.50;3.00;;;28.92;97890.73;;;;119042;1188;25308;-65
2022/07/14 00:27:43;;;;;;;;;2.50;2.50;;;28.91;97891.75;;;;118982;1189;25234;-65
2022/07/14 00:30:11;;;;;;;;;3.75;3.50;;;28.91;97890.95;;;;118945;1190;26116;-65
2022/07/14 00:32:39;;;;;;;;;3.25;3.25;;;28.90;97891.31;;;;119014;1189;25001;-65
2022/07/14 00:35:08;;;;;;;;;4.50;3.25;;;28.90;97887.90;;;;119016;1189;25628;-66
2022/07/14 00:37:36;;;;;;;;;5.25;4.00;;;28.90;97885.77;;;;119076;1188;25122;-64
2022/07/14 00:40:05;;;;;;;;;3.50;2.00;;;28.89;97887.20;;;;119071;1186;25804;-65
2022/07/14 00:42:41;;;;;;;;;6.33;6.00;;;28.88;97893.66;;;;118989;1190;26047;-65
2022/07/14 00:45:13;;;;;;;;;3.75;3.00;;;28.89;97896.25;;;;119066;1188;24962;-65
2022/07/14 00:47:42;;;;;;;;;4.00;4.00;;;28.89;97898.02;;;;119040;1189;25271;-65
2022/07/14 00:50:11;;;;;;;;;5.50;4.50;;;28.89;97895.60;;;;119011;1190;25006;-65
2022/07/14 00:52:41;;;;;;;;;4.00;4.00;;;28.88;97900.15;;;;119017;1189;25057;-65
2022/07/14 00:55:12;;;;;;;;;6.00;3.50;;;28.88;97903.53;;;;119101;1187;26304;-65
2022/07/14 00:57:41;;;;;;;;;4.00;3.25;;;28.91;97905.79;;;;119029;1189;25715;-66
2022/07/14 01:00:11;;;;;;;;;3.00;3.00;;;28.91;97900.78;;;;118986;1190;25518;-65
2022/07/14 01:02:41;;;;;;;;;3.00;2.00;;;28.90;97895.85;;;;119021;1190;26165;-65
2022/07/14 01:05:09;;;;;;;;;2.25;2.25;;;28.90;97888.38;;;;119006;1187;25449;-64
2022/07/14 01:07:38;;;;;;;;;4.50;3.25;;;28.89;97886.67;;;;118997;1190;25634;-65
2022/07/14 01:10:06;;;;;;;;;3.50;3.00;;;28.87;97886.39;;;;119000;1190;25130;-65
2022/07/14 01:12:35;;;;;;;;;5.50;4.50;;;28.87;97890.84;;;;118949;1190;26380;-65
2022/07/14 01:15:04;;;;;;;;;4.00;4.00;;;28.86;97889.36;;;;119107;1188;25683;-64
2022/07/14 01:17:32;;;;;;;;;3.75;3.75;;;28.88;97887.69;;;;119029;1188;25393;-65
2022/07/14 01:19:59;;;;;;;;;3.50;3.50;;;28.89;97891.66;;;;119120;1188;25168;-64
2022/07/14 01:22:27;;;;;;;;;4.25;4.25;;;28.88;97893.66;;;;119132;1188;25423;-65
2022/07/14 01:24:55;;;;;;;;;2.75;2.75;;;28.85;97900.50;;;;119111;1188;24821;-66
2022/07/14 01:27:23;;;;;;;;;4.00;3.75;;;28.84;97904.33;;;;119070;1187;24770;-64
2022/07/14 01:29:51;;;;;;;;;3.00;2.00;;;28.84;97901.50;;;;119000;1189;25314;-65
2022/07/14 01:32:19;;;;;;;;;3.00;3.00;;;28.83;97903.27;;;;118999;1189;25016;-65
2022/07/14 01:34:47;;;;;;;;;3.00;3.00;;;28.82;97903.75;;;;118998;1189;24892;-66
2022/07/14 01:37:15;;;;;;;;;5.00;3.25;;;28.81;97904.42;;;;119078;1188;25074;-65
2022/07/14 01:39:42;;;;;;;;;3.00;3.00;;;28.82;97903.23;;;;119102;1188;25877;-65
2022/07/14 01:42:11;;;;;;;;;3.75;3.75;;;28.81;97901.03;;;;119088;1188;25073;-66
2022/07/14 01:44:39;;;;;;;;;2.00;2.00;;;28.79;97897.27;;;;119088;1189;25178;-65
2022/07/14 01:47:08;;;;;;;;;2.00;1.50;;;28.80;97901.00;;;;119006;1189;25665;-65
2022/07/14 01:49:36;;;;;;;;;4.50;2.75;;;28.79;97903.09;;;;118989;1190;24963;-66
2022/07/14 01:52:04;;;;;;;;;2.00;2.00;;;28.78;97902.23;;;;118983;1189;25553;-66
2022/07/14 01:54:33;;;;;;;;;3.00;3.00;;;28.78;97903.34;;;;119001;1190;24753;-66
2022/07/14 01:57:01;;;;;;;;;3.67;2.33;;;28.78;97901.61;;;;118960;1187;24926;-65
2022/07/14 01:59:28;;;;;;;;;3.25;3.25;;;28.78;97900.04;;;;119097;1188;25368;-64
2022/07/14 02:01:56;;;;;;;;;2.25;2.25;;;28.77;97899.85;;;;119093;1189;24712;-65
2022/07/14 02:04:24;;;;;;;;;2.75;2.75;;;28.76;97901.27;;;;119063;1188;25183;-65
2022/07/14 02:06:54;;;;;;;;;5.00;3.00;;;28.76;97903.55;;;;119079;1188;24925;-65
2022/07/14 02:09:22;;;;;;;;;3.67;3.67;;;28.76;97901.32;;;;119009;1189;25279;-65
2022/07/14 02:14:36;;;;;;;;;3.50;3.50;;;28.75;97905.29;;;;119014;1189;25182;-65
2022/07/14 02:17:04;;;;;;;;;2.00;2.00;;;28.74;97905.70;;;;119033;1189;25491;-66
2022/07/14 02:19:32;;;;;;;;;5.00;3.00;;;28.74;97906.37;;;;119043;1189;25652;-65
2022/07/14 02:22:00;;;;;;;;;2.00;2.00;;;28.74;97904.37;;;;119050;1189;25811;-65
2022/07/14 02:24:27;;;;;;;;;4.00;3.00;;;28.73;97897.64;;;;119059;1189;24821;-65
2022/07/14 02:26:55;;;;;;;;;4.00;3.00;;;28.73;97889.60;;;;119051;1189;24971;-66
2022/07/14 02:29:23;;;;;;;;;6.00;4.00;;;28.72;97895.56;;;;118992;1190;25186;-65
2022/07/14 02:31:51;;;;;;;;;4.50;2.50;;;28.72;97906.52;;;;119006;1189;26802;-66
2022/07/14 02:34:19;;;;;;;;;2.50;2.50;;;28.72;97909.93;;;;119004;1190;24961;-64
2022/07/14 02:36:47;;;;;;;;;2.00;2.00;;;28.72;97903.38;;;;119017;1189;25080;-65
2022/07/14 02:39:15;;;;;;;;;2.50;2.50;;;28.72;97902.88;;;;119011;1189;24965;-64
2022/07/14 02:41:43;;;;;;;;;4.25;3.00;;;28.74;97903.02;;;;119004;1189;26736;-66
2022/07/14 02:44:11;;;;;;;;;3.50;2.00;;;28.74;97899.67;;;;119010;1189;25242;-66
2022/07/14 02:46:39;;;;;;;;;3.50;3.50;;;28.75;97901.71;;;;119004;1190;24950;-66
2022/07/14 02:49:07;;;;;;;;;4.75;2.50;;;28.74;97903.37;;;;119002;1189;25837;-65
2022/07/14 02:51:35;;;;;;;;;2.25;2.00;;;28.73;97902.14;;;;119082;1187;24864;-65
2022/07/14 02:54:03;;;;;;;;;4.75;3.00;;;28.76;97902.77;;;;118988;1189;25485;-65
2022/07/14 02:56:31;;;;;;;;;2.75;2.75;;;28.75;97902.70;;;;119169;1188;25794;-65
2022/07/14 02:58:58;;;;;;;;;2.25;2.25;;;28.73;97906.46;;;;119023;1189;25249;-65
2022/07/14 03:01:26;;;;;;;;;3.75;2.25;;;28.72;97908.48;;;;119021;1188;25501;-65
2022/07/14 03:03:54;;;;;;;;;3.25;2.00;;;28.72;97911.13;;;;119022;1189;25353;-66
2022/07/14 03:06:22;;;;;;;;;2.00;2.00;;;28.74;97913.07;;;;119026;1188;25117;-65
2022/07/14 03:08:50;;;;;;;;;2.00;2.00;;;28.73;97913.74;;;;119112;1188;25644;-65
2022/07/14 03:11:18;;;;;;;;;3.75;2.50;;;28.73;97915.48;;;;119063;1187;26425;-65
2022/07/14 03:13:46;;;;;;;;;3.50;2.50;;;28.71;97914.59;;;;119054;1188;25318;-65
2022/07/14 03:16:14;;;;;;;;;2.00;2.00;;;28.69;97918.45;;;;119032;1188;24785;-64
2022/07/14 03:18:42;;;;;;;;;2.00;2.00;;;28.69;97915.82;;;;119011;1188;25742;-65
2022/07/14 03:21:11;;;;;;;;;1.00;1.00;;;28.72;97917.58;;;;119005;1189;25472;-64
2022/07/14 03:23:40;;;;;;;;;2.00;2.00;;;28.73;97909.77;;;;119005;1189;25340;-64
2022/07/14 03:26:09;;;;;;;;;2.50;2.00;;;28.72;97915.17;;;;119049;1188;25582;-65
2022/07/14 03:28:37;;;;;;;;;2.00;2.00;;;28.72;97913.27;;;;119012;1190;25652;-65
2022/07/14 03:31:05;;;;;;;;;2.00;2.00;;;28.70;97918.41;;;;119123;1187;25205;-64
2022/07/14 03:33:34;;;;;;;;;2.00;2.00;;;28.69;97919.94;;;;119135;1187;26277;-67
2022/07/14 03:36:02;;;;;;;;;3.75;3.00;;;28.70;97920.05;;;;119006;1190;25635;-63
2022/07/14 03:38:30;;;;;;;;;4.50;2.75;;;28.62;97920.17;;;;119057;1187;25830;-66
2022/07/14 03:41:05;;;;;;;;;2.50;2.50;;;28.55;97925.67;;;;119135;1188;25495;-64
2022/07/14 03:43:34;;;;;;;;;3.50;3.00;;;28.51;97927.28;;;;119001;1189;24742;-64
2022/07/14 03:46:03;;;;;;;;;2.00;2.00;;;28.38;97926.29;;;;119004;1189;25148;-63
2022/07/14 03:48:32;;;;;;;;;2.75;2.75;;;28.32;97927.21;;;;119006;1190;25906;-63
2022/07/14 03:51:00;;;;;;;;;1.75;1.75;;;28.20;97925.64;;;;119024;1189;25225;-63
2022/07/14 03:53:32;;;;;;;;;4.00;2.00;;;28.10;97924.52;;;;118989;1189;25756;-69
2022/07/14 03:56:00;;;;;;;;;3.25;3.25;;;28.05;97920.23;;;;118997;1190;25635;-69
2022/07/14 03:58:28;;;;;;;;;3.00;2.33;;;27.99;97922.29;;;;118919;1189;25139;-68
2022/07/14 04:00:55;;;;;;;;;3.00;1.00;;;27.92;97926.59;;;;118966;1190;25334;-66
2022/07/14 04:03:23;;;;;;;;;3.50;2.00;;;27.88;97930.16;;;;118984;1189;24867;-68
2022/07/14 04:05:51;;;;;;;;;5.00;2.50;;;27.81;97929.73;;;;119002;1190;25853;-65
2022/07/14 04:08:19;;;;;;;;;5.00;4.00;;;27.73;97929.32;;;;118990;1189;24906;-65
2022/07/14 04:10:47;;;;;;;;;8.00;3.00;;;27.67;97930.36;;;;118977;1189;25032;-63
2022/07/14 04:13:15;;;;;;;;;3.00;2.50;;;27.60;97929.81;;;;118997;1190;24714;-63
2022/07/14 04:15:43;;;;;;;;;4.00;4.00;;;27.60;97929.59;;;;118980;1190;24875;-64
2022/07/14 04:18:12;;;;;;;;;3.00;3.00;;;27.55;97934.52;;;;118887;1191;25081;-64
2022/07/14 04:20:47;;;;;;;;;4.00;4.00;;;27.54;97936.34;;;;119006;1190;25744;-65
2022/07/14 04:23:16;;;;;;;;;14.00;7.75;;;27.50;97933.36;;;;118988;1190;26107;-65
2022/07/14 04:25:44;;;;;;;;;12.50;9.25;;;27.50;97933.24;;;;118997;1189;25685;-64
2022/07/14 04:28:12;;;;;;;;;8.75;7.00;;;27.50;97932.59;;;;118942;1190;26181;-72
2022/07/14 04:30:40;;;;;;;;;10.25;7.00;;;27.49;97938.29;;;;118970;1189;26377;-69
2022/07/14 04:33:10;;;;;;;;;5.00;5.00;;;27.50;97940.02;;;;118944;1190;25325;-68
2022/07/14 04:35:38;;;;;;;;;7.75;6.75;;;27.48;97939.02;;;;119006;1190;25572;-66
2022/07/14 04:38:06;;;;;;;;;6.50;4.00;;;27.56;97939.16;;;;118925;1190;25132;-66
2022/07/14 04:40:34;;;;;;;;;5.25;3.25;;;27.52;97943.27;;;;118987;1190;25713;-67
2022/07/14 04:43:02;;;;;;;;;3.50;3.50;;;27.53;97943.73;;;;118973;1189;25532;-69
2022/07/14 04:45:30;;;;;;;;;8.00;5.75;;;27.49;97943.08;;;;119010;1189;25894;-67
2022/07/14 04:47:58;;;;;;;;;7.25;4.50;;;27.56;97944.36;;;;119265;1188;25052;-67
2022/07/14 04:53:12;;;;;;;;;3.50;2.75;;;27.96;97948.01;;;;119003;1190;25093;-66
2022/07/14 04:55:40;;;;;;;;;5.00;4.00;;;27.90;97943.52;;;;119400;1190;24897;-66
2022/07/14 04:58:08;;;;;;;;;5.00;3.50;;;28.36;97941.05;;;;119022;1190;24884;-68
2022/07/14 05:00:36;;;;;;;;;5.00;3.00;;;28.17;97938.81;;;;119020;1189;25201;-67
2022/07/14 05:03:04;;;;;;;;;3.00;3.00;;;28.00;97934.65;;;;118971;1190;24856;-67
2022/07/14 05:05:32;;;;;;;;;2.00;2.00;;;27.85;97933.00;;;;118955;1190;25381;-69
2022/07/14 05:08:00;;;;;;;;;4.00;2.75;;;27.79;97930.30;;;;118971;1190;25268;-67
2022/07/14 05:10:28;;;;;;;;;7.25;5.00;;;27.74;97934.31;;;;118976;1190;25628;-66
2022/07/14 05:12:56;;;;;;;;;4.50;4.50;;;27.68;97934.96;;;;118974;1189;25815;-67
2022/07/14 05:15:24;;;;;;;;;3.75;3.50;;;27.60;97933.23;;;;118960;1189;26283;-67
2022/07/14 05:17:52;;;;;;;;;4.25;4.25;;;27.60;97934.85;;;;118966;1189;25855;-67
2022/07/14 05:20:20;;;;;;;;;4.25;4.00;;;27.58;97934.28;;;;118981;1187;26425;-68
2022/07/14 05:22:48;;;;;;;;;3.00;3.00;;;27.58;97937.30;;;;119085;1188;25307;-67
2022/07/14 05:25:16;;;;;;;;;4.75;3.50;;;27.59;97942.79;;;;119157;1186;25470;-68
2022/07/14 05:27:47;;;;;;;;;4.25;3.50;;;27.60;97945.00;;;;119276;1188;25109;-69
2022/07/14 05:30:15;;;;;;;;;4.00;4.00;;;27.78;97944.38;;;;119155;1187;25682;-69
2022/07/14 05:32:43;;;;;;;;;6.33;4.33;;;27.83;97941.89;;;;119228;1186;25740;-70
2022/07/14 05:35:11;;;;;;;;;3.50;3.50;;;27.87;97944.13;;;;119229;1187;25732;-65
2022/07/14 05:37:39;;;;;;;;;4.00;4.00;;;27.98;97945.96;;;;119071;1189;25605;-71
2022/07/14 05:40:07;;;;;;;;;6.25;5.50;;;28.06;97945.94;;;;119206;1188;24882;-62
2022/07/14 05:42:35;;;;;;;;;7.50;7.00;;;27.98;97949.65;;;;119264;1188;24814;-69
2022/07/14 05:45:03;;;;;;;;;5.25;4.00;;;28.06;97952.52;;;;119222;1187;25558;-66
2022/07/14 05:47:31;;;;;;;;;5.00;5.00;;;28.05;97950.09;;;;119203;1187;24941;-65
2022/07/14 05:49:59;;;;;;;;;5.25;4.75;;;28.00;97951.88;;;;119205;1187;25248;-67
2022/07/14 05:52:30;;;;;;;;;16.25;15.00;;;27.96;97950.88;;;;119211;1187;26110;-65
2022/07/14 05:54:58;;;;;;;;;19.75;15.75;;;27.95;97952.03;;;;119003;1189;26009;-68
2022/07/14 05:57:27;;;;;;;;;28.25;20.50;;;28.00;97949.84;;;;119191;1188;25618;-69
2022/07/14 05:59:55;;;;;;;;;20.75;17.00;;;27.99;97949.27;;;;119253;1187;25070;-67
2022/07/14 06:02:23;;;;;;;;;21.25;15.25;;;28.08;97948.61;;;;119248;1188;25898;-66
2022/07/14 06:04:51;;;;;;;;;10.33;9.00;;;28.18;97952.46;;;;119312;1187;24798;-68
2022/07/14 06:07:19;;;;;;;;;5.00;5.00;;;28.28;97951.40;;;;119289;1187;25613;-68
2022/07/14 06:09:49;;;;;;;;;8.00;7.00;;;28.44;97953.78;;;;119181;1187;24927;-67
2022/07/14 06:12:17;;;;;;;;;9.50;8.00;;;28.64;97954.08;;;;119308;1186;26049;-70
2022/07/14 06:14:45;;;;;;;;;14.00;8.25;;;28.76;97952.86;;;;119204;1188;25831;-68
2022/07/14 06:17:14;;;;;;;;;8.75;3.50;;;28.68;97956.73;;;;119099;1188;25450;-72
2022/07/14 06:19:42;;;;;;;;;9.50;9.00;;;28.74;97958.23;;;;118984;1189;25707;-68
2022/07/14 06:22:10;;;;;;;;;14.25;10.00;;;28.78;97955.06;;;;119257;1187;25533;-70
2022/07/14 06:24:39;;;;;;;;;11.75;10.25;;;28.85;97958.06;;;;119188;1187;26194;-68
2022/07/14 06:27:14;;;;;;;;;8.50;7.75;;;28.85;97956.66;;;;119181;1188;25358;-67
2022/07/14 06:29:42;;;;;;;;;11.00;7.25;;;28.84;97956.73;;;;119251;1187;24841;-71
2022/07/14 06:32:10;;;;;;;;;15.00;11.00;;;28.84;97954.80;;;;119161;1187;25508;-75
2022/07/14 06:34:40;;;;;;;;;10.75;7.00;;;28.90;97957.17;;;;119160;1187;25090;-73
2022/07/14 06:37:09;;;;;;;;;12.75;9.50;;;28.93;97955.52;;;;119176;1187;24951;-75
2022/07/14 06:39:37;;;;;;;;;11.25;8.25;;;28.99;97952.11;;;;119178;1188;24913;-71
2022/07/14 06:42:05;;;;;;;;;14.75;8.00;;;29.14;97950.45;;;;119291;1187;24929;-65
2022/07/14 06:44:33;;;;;;;;;7.75;6.50;;;29.24;97948.08;;;;119041;1188;25884;-65
2022/07/14 06:47:01;;;;;;;;;9.00;5.25;;;29.23;97946.23;;;;119200;1187;24854;-67
2022/07/14 06:49:30;;;;;;;;;5.00;5.00;;;29.23;97945.09;;;;119230;1188;24870;-73
2022/07/14 06:52:00;;;;;;;;;5.75;4.25;;;29.29;97939.02;;;;119208;1188;25669;-68
2022/07/14 06:54:27;;;;;;;;;4.50;4.00;;;29.41;97938.71;;;;119237;1187;25062;-66
2022/07/14 06:56:55;;;;;;;;;9.00;7.50;;;29.48;97938.23;;;;119047;1188;25518;-67
2022/07/14 06:59:23;;;;;;;;;10.00;9.00;;;29.50;97938.64;;;;119238;1188;26054;-68
2022/07/14 07:01:51;;;;;;;;;7.25;6.00;;;29.56;97934.70;;;;119171;1187;25307;-68
2022/07/14 07:04:19;;;;;;;;;8.50;6.00;;;29.58;97936.46;;;;118960;1190;26065;-72
2022/07/14 07:06:54;;;;;;;;;8.25;5.25;;;29.49;97935.02;;;;118933;1190;25234;-68
2022/07/14 07:09:22;;;;;;;;;5.25;4.50;;;29.40;97934.13;;;;118949;1190;26401;-67
2022/07/14 07:11:50;;;;;;;;;7.25;5.25;;;29.37;97932.33;;;;119234;1190;24919;-67
2022/07/14 07:14:18;;;;;;;;;7.25;4.50;;;29.63;97929.09;;;;119222;1190;24922;-67
2022/07/14 07:16:47;;;;;;;;;9.00;8.00;;;29.84;97929.16;;;;118994;1190;25716;-67
2022/07/14 07:19:17;;;;;;;;;6.75;5.75;;;29.63;97927.95;;;;119052;1190;25664;-66
2022/07/14 07:21:44;;;;;;;;;8.50;6.50;;;29.60;97927.58;;;;118980;1190;25175;-68
2022/07/14 07:24:12;;;;;;;;;8.75;4.50;;;29.48;97924.97;;;;119002;1189;25686;-67
2022/07/14 07:26:41;;;;;;;;;8.00;5.00;;;29.38;97922.27;;;;118984;1190;25133;-68
2022/07/14 07:29:09;;;;;;;;;7.50;6.00;;;29.35;97920.44;;;;118974;1189;25759;-68
2022/07/14 07:31:37;;;;;;;;;6.00;4.50;;;29.28;97922.63;;;;119004;1189;25735;-67
2022/07/14 07:34:05;;;;;;;;;7.00;4.25;;;29.25;97922.16;;;;119297;1190;25241;-66
2022/07/14 07:36:33;;;;;;;;;4.00;4.00;;;29.64;97918.55;;;;119371;1190;25996;-66
2022/07/14 07:39:00;;;;;;;;;5.75;4.00;;;30.15;97924.36;;;;119441;1189;25075;-66
2022/07/14 07:41:28;;;;;;;;;4.75;4.75;;;30.50;97919.95;;;;119411;1188;25646;-67
2022/07/14 07:43:58;;;;;;;;;3.50;3.50;;;30.73;97918.83;;;;119403;1190;25009;-66
2022/07/14 07:46:26;;;;;;;;;5.00;4.00;;;30.94;97920.74;;;;119408;1188;26145;-66
2022/07/14 07:48:54;;;;;;;;;3.67;3.00;;;31.12;97919.73;;;;119254;1190;25043;-67
2022/07/14 07:51:22;;;;;;;;;4.50;4.50;;;31.03;97917.63;;;;119014;1190;24731;-67
2022/07/14 07:53:49;;;;;;;;;6.50;5.50;;;30.55;97914.86;;;;119003;1190;25672;-67
2022/07/14 07:56:17;;;;;;;;;5.00;5.00;;;30.22;97915.83;;;;118976;1189;25988;-67
2022/07/14 07:58:45;;;;;;;;;7.75;5.75;;;29.99;97916.01;;;;119010;1190;25670;-67
2022/07/14 08:01:14;;;;;;;;;6.00;4.75;;;29.84;97914.27;;;;119031;1189;24816;-67
2022/07/14 08:03:42;;;;;;;;;6.25;4.75;;;29.71;97914.27;;;;118994;1190;25778;-67
2022/07/14 08:06:11;;;;;;;;;7.00;7.00;;;29.61;97912.10;;;;119006;1190;26493;-67
2022/07/14 08:08:59;;;;;;;;;4.00;1.50;;;29.61;97907.84;;;;118966;1190;25824;-67
2022/07/14 08:11:27;;;;;;;;;4.00;3.75;;;29.54;97904.08;;;;118989;1189;25391;-68
2022/07/14 08:13:55;;;;;;;;;5.75;5.75;;;29.46;97897.33;;;;119019;1190;26145;-67
2022/07/14 08:16:23;;;;;;;;;8.75;6.00;;;29.40;97900.08;;;;119027;1189;25545;-67
2022/07/14 08:18:52;;;;;;;;;6.25;5.00;;;29.36;97896.41;;;;118991;1190;25069;-67
2022/07/14 08:21:21;;;;;;;;;5.50;5.00;;;29.33;97900.63;;;;119000;1189;24839;-68
2022/07/14 08:23:49;;;;;;;;;3.00;3.00;;;29.30;97901.38;;;;118992;1190;25981;-67
2022/07/14 08:26:16;;;;;;;;;3.50;2.00;;;29.27;97896.91;;;;119008;1190;25878;-69
2022/07/14 08:28:44;;;;;;;;;9.00;6.00;;;29.24;97895.78;;;;119014;1188;25217;-69
2022/07/14 08:31:12;;;;;;;;;6.00;5.00;;;29.19;97897.55;;;;118981;1190;25114;-67
2022/07/14 08:33:41;;;;;;;;;3.50;3.50;;;29.16;97892.44;;;;119023;1190;25386;-67
2022/07/14 08:36:09;;;;;;;;;6.50;4.25;;;29.15;97887.23;;;;118983;1189;25136;-67
2022/07/14 08:38:37;;;;;;;;;9.00;6.25;;;29.13;97883.58;;;;119007;1188;24914;-67
2022/07/14 08:41:05;;;;;;;;;5.75;4.50;;;29.12;97885.96;;;;119004;1190;25388;-67
2022/07/14 08:43:34;;;;;;;;;7.00;5.00;;;29.10;97884.21;;;;119009;1189;25881;-68
2022/07/14 08:46:04;;;;;;;;;4.00;3.50;;;29.11;97886.29;;;;118946;1190;25850;-67
2022/07/14 08:48:33;;;;;;;;;1.25;1.25;;;29.10;97886.77;;;;118976;1189;25443;-68
2022/07/14 08:51:01;;;;;;;;;4.75;4.00;;;29.12;97885.45;;;;118931;1190;25219;-68
2022/07/14 08:53:29;;;;;;;;;5.50;3.75;;;29.11;97881.21;;;;118909;1190;25867;-68
2022/07/14 08:55:58;;;;;;;;;5.00;3.75;;;29.09;97875.83;;;;118882;1189;25612;-67
2022/07/14 08:58:26;;;;;;;;;4.00;4.00;;;29.08;97873.12;;;;118994;1190;25572;-67
2022/07/14 09:00:53;;;;;;;;;4.00;4.00;;;29.07;97873.16;;;;118869;1190;25544;-68
2022/07/14 09:03:21;;;;;;;;;5.75;4.00;;;29.06;97867.77;;;;118999;1188;25474;-68
2022/07/14 09:06:09;;;;;;;;;6.67;5.00;;;29.13;97868.91;;;;118995;1190;25164;-69
2022/07/14 09:08:55;;;;;;;;;4.50;4.50;;;29.14;97869.48;;;;118957;1190;25305;-68
2022/07/14 09:11:23;;;;;;;;;5.00;4.00;;;29.11;97865.73;;;;118990;1189;25006;-68
2022/07/14 09:13:51;;;;;;;;;4.50;3.75;;;29.08;97860.13;;;;118970;1190;24754;-68
2022/07/14 09:16:22;;;;;;;;;6.00;5.00;;;29.06;97859.89;;;;119013;1189;25663;-68
2022/07/14 09:19:02;;;;;;;;;5.25;4.25;;;29.05;97855.15;;;;118962;1189;25511;-68
2022/07/14 09:21:30;;;;;;;;;2.00;2.00;;;29.06;97856.47;;;;118980;1187;25034;-68
2022/07/14 09:23:58;;;;;;;;;8.50;5.50;;;29.04;97855.59;;;;118930;1190;25137;-68
2022/07/14 09:26:26;;;;;;;;;6.50;5.00;;;29.03;97857.55;;;;118988;1190;25326;-69
2022/07/14 09:28:55;;;;;;;;;6.00;4.75;;;29.02;97861.68;;;;119003;1189;25603;-69
2022/07/14 09:31:31;;;;;;;;;6.75;6.25;;;29.04;97860.19;;;;118994;1189;25117;-68
2022/07/14 09:34:01;;;;;;;;;7.75;7.75;;;29.05;97860.26;;;;119001;1190;25316;-68
2022/07/14 09:36:32;;;;;;;;;8.25;5.00;;;29.04;97861.95;;;;119012;1189;25442;-67
2022/07/14 09:39:06;;;;;;;;;7.50;5.00;;;29.04;97855.70;;;;118989;1189;25255;-67
2022/07/14 09:41:54;;;;;;;;;6.75;6.25;;;29.05;97853.55;;;;118995;1189;25563;-67
2022/07/14 09:44:22;;;;;;;;;4.50;4.50;;;29.07;97856.52;;;;119003;1190;24903;-68
2022/07/14 09:46:56;;;;;;;;;4.25;4.25;;;29.04;97853.27;;;;118969;1189;25722;-68
2022/07/14 09:49:27;;;;;;;;;5.75;4.75;;;29.03;97852.20;;;;119001;1189;25093;-67
2022/07/14 09:51:56;;;;;;;;;5.75;5.75;;;29.03;97851.30;;;;119014;1189;26453;-68
2022/07/14 09:54:39;;;;;;;;;5.00;4.00;;;29.02;97848.59;;;;118997;1189;25031;-67
2022/07/14 09:57:13;;;;;;;;;5.25;4.00;;;29.02;97848.11;;;;119005;1189;25271;-67
2022/07/14 09:59:48;;;;;;;;;6.75;5.50;;;29.00;97849.36;;;;119035;1189;25201;-68
2022/07/14 10:02:22;;;;;;;;;4.25;4.00;;;29.00;97843.24;;;;119002;1190;25644;-68
2022/07/14 10:04:51;;;;;;;;;4.00;4.00;;;29.01;97841.09;;;;119024;1189;24851;-68
2022/07/14 10:07:19;;;;;;;;;5.25;4.25;;;29.01;97846.05;;;;119002;1189;24919;-67
2022/07/14 10:10:03;;;;;;;;;7.50;5.25;;;29.02;97845.58;;;;118983;1189;25152;-67
2022/07/14 10:12:31;;;;;;;;;5.75;4.50;;;29.06;97843.38;;;;118968;1189;25072;-66
2022/07/14 10:15:02;;;;;;;;;5.25;4.50;;;29.07;97843.88;;;;118956;1190;25432;-66
2022/07/14 10:17:34;;;;;;;;;10.75;8.00;;;29.07;97841.48;;;;118981;1189;25100;-67
2022/07/14 10:20:06;;;;;;;;;8.25;6.25;;;29.06;97834.56;;;;118996;1189;26120;-66
2022/07/14 10:22:34;;;;;;;;;4.00;3.75;;;29.07;97829.14;;;;118983;1189;25511;-67
2022/07/14 10:25:04;;;;;;;;;8.25;7.25;;;29.06;97827.85;;;;118990;1190;24898;-68
2022/07/14 10:27:40;;;;;;;;;6.00;6.00;;;29.07;97823.43;;;;119001;1189;25921;-68
2022/07/14 10:30:10;;;;;;;;;8.75;7.25;;;29.08;97824.67;;;;118987;1189;25058;-68
2022/07/14 10:32:50;;;;;;;;;4.00;4.00;;;29.07;97820.29;;;;118936;1190;25225;-68
2022/07/14 10:35:35;;;;;;;;;4.50;4.00;;;29.08;97821.25;;;;119004;1189;25345;-67
2022/07/14 10:38:42;;;;;;;;;6.75;4.75;;;29.08;97818.02;;;;118972;1189;25339;-66
2022/07/14 10:41:30;;;;;;;;;4.25;4.25;;;29.17;97819.35;;;;118515;1192;24869;-66
2022/07/14 10:44:16;;;;;;;;;4.00;3.75;;;29.18;97819.73;;;;118890;1190;25572;-67
2022/07/14 10:46:46;;;;;;;;;5.25;3.50;;;29.18;97821.16;;;;118993;1189;24975;-67
2022/07/14 10:49:15;;;;;;;;;4.50;4.50;;;29.16;97823.47;;;;118994;1190;25749;-66
2022/07/14 10:51:47;;;;;;;;;4.25;4.00;;;29.15;97817.05;;;;118986;1189;25045;-67
2022/07/14 10:54:25;;;;;;;;;6.75;5.00;;;29.15;97817.97;;;;119016;1190;25400;-67
2022/07/14 10:57:13;;;;;;;;;4.75;3.00;;;29.22;97811.19;;;;118969;1189;25254;-67
2022/07/14 10:59:43;;;;;;;;;8.25;5.75;;;29.20;97810.55;;;;118993;1190;24861;-67
2022/07/14 11:02:13;;;;;;;;;3.25;3.25;;;29.18;97811.09;;;;118942;1190;25287;-67
2022/07/14 11:04:59;;;;;;;;;3.75;3.50;;;29.18;97806.94;;;;118970;1189;25609;-67
2022/07/14 11:07:47;;;;;;;;;4.25;4.25;;;29.19;97802.38;;;;118991;1190;24970;-68
2022/07/14 11:10:18;;;;;;;;;4.00;3.50;;;29.18;97795.42;;;;118986;1189;25835;-67
2022/07/14 11:13:04;;;;;;;;;3.00;3.00;;;29.16;97793.70;;;;119030;1188;26640;-67
2022/07/14 11:15:45;;;;;;;;;3.25;3.25;;;29.18;97791.77;;;;118970;1190;25561;-65
2022/07/14 11:18:21;;;;;;;;;5.75;4.00;;;29.19;97794.16;;;;118949;1189;24863;-66
2022/07/14 11:21:07;;;;;;;;;3.75;3.75;;;29.19;97795.45;;;;119002;1190;25288;-66
2022/07/14 11:23:51;;;;;;;;;3.00;3.00;;;29.22;97794.33;;;;118943;1189;24997;-67
2022/07/14 11:26:47;;;;;;;;;3.00;3.00;;;29.21;97790.19;;;;118986;1189;26040;-67
2022/07/14 11:29:31;;;;;;;;;6.50;3.00;;;29.24;97788.38;;;;118982;1189;26695;-67
2022/07/14 11:32:00;;;;;;;;;3.00;3.00;;;29.28;97787.86;;;;118983;1190;25610;-67
2022/07/14 11:38:00;;;;;;;;;3.75;3.75;;;29.36;97783.30;;;;118989;1190;25227;-66
2022/07/14 11:40:41;;;;;;;;;3.75;3.50;;;29.32;97782.73;;;;119015;1190;25085;-67
2022/07/14 11:43:28;;;;;;;;;3.00;2.75;;;29.32;97782.51;;;;119020;1189;25356;-67
2022/07/14 11:46:04;;;;;;;;;2.25;2.25;;;29.31;97777.88;;;;119014;1190;24922;-67
2022/07/14 11:48:35;;;;;;;;;4.75;3.00;;;29.29;97773.98;;;;118988;1189;25150;-67
2022/07/14 11:51:15;;;;;;;;;6.50;3.25;;;29.28;97770.45;;;;118989;1189;25404;-66
2022/07/14 11:53:43;;;;;;;;;2.50;2.00;;;29.33;97770.38;;;;118991;1189;26009;-67
2022/07/14 11:56:12;;;;;;;;;4.00;4.00;;;29.32;97768.46;;;;119030;1190;25606;-66
2022/07/14 11:58:40;;;;;;;;;5.00;4.00;;;29.31;97771.31;;;;119012;1190;24976;-67
2022/07/14 12:01:09;;;;;;;;;4.50;3.75;;;29.29;97770.65;;;;119001;1190;25746;-67
2022/07/14 12:03:37;;;;;;;;;3.75;3.00;;;29.29;97772.61;;;;118984;1190;25521;-67
2022/07/14 12:06:06;;;;;;;;;5.00;5.00;;;29.28;97775.72;;;;119016;1189;25271;-66
2022/07/14 12:08:37;;;;;;;;;3.25;2.50;;;29.28;97775.23;;;;118989;1189;26254;-69
2022/07/14 12:11:09;;;;;;;;;3.33;3.33;;;29.29;97776.55;;;;118975;1190;25363;-69
2022/07/14 12:13:51;;;;;;;;;5.75;4.00;;;29.32;97772.08;;;;118929;1190;25660;-70
2022/07/14 12:16:20;;;;;;;;;3.00;3.00;;;29.33;97772.88;;;;118985;1189;25001;-70
2022/07/14 12:18:53;;;;;;;;;2.00;1.25;;;29.34;97772.83;;;;118998;1190;25272;-69
2022/07/14 12:21:33;;;;;;;;;5.00;5.00;;;29.35;97774.46;;;;118990;1189;25210;-69
2022/07/14 12:24:02;;;;;;;;;6.00;4.00;;;29.38;97767.77;;;;118996;1189;26367;-70
2022/07/14 12:26:30;;;;;;;;;4.00;3.00;;;29.39;97764.65;;;;119003;1189;24723;-68
2022/07/14 12:29:00;;;;;;;;;4.00;4.00;;;29.38;97763.27;;;;119011;1190;24782;-69
2022/07/14 12:31:29;;;;;;;;;4.75;3.75;;;29.42;97761.39;;;;119006;1189;24984;-68